createdAt,value
2023-04-23T00:00:03.020Z,0.00
2023-04-23T00:01:03.050Z,0.00
2023-04-23T00:02:03.089Z,0.00
2023-04-23T00:03:03.138Z,0.00
2023-04-23T00:04:03.263Z,0.00
2023-04-23T00:05:03.252Z,0.00
2023-04-23T00:06:03.215Z,0.00
2023-04-23T00:07:03.286Z,0.00
2023-04-23T00:08:03.286Z,0.00
2023-04-23T00:09:03.319Z,0.00
2023-04-23T00:10:03.355Z,0.00
2023-04-23T00:11:03.379Z,0.00
2023-04-23T00:12:03.414Z,0.00
2023-04-23T00:13:03.478Z,0.00
2023-04-23T00:14:03.486Z,0.00
2023-04-23T00:15:03.541Z,0.00
2023-04-23T00:16:03.599Z,0.00
2023-04-23T00:17:03.596Z,0.00
2023-04-23T00:18:03.628Z,0.00
2023-04-23T00:19:03.667Z,0.00
2023-04-23T00:20:03.687Z,0.00
2023-04-23T00:21:03.755Z,0.00
2023-04-23T00:22:03.765Z,0.00
2023-04-23T00:23:03.796Z,0.00
2023-04-23T00:24:03.841Z,0.00
2023-04-23T00:25:03.867Z,0.00
2023-04-23T00:26:03.880Z,0.00
2023-04-23T00:27:03.942Z,0.00
2023-04-23T00:28:03.960Z,0.00
2023-04-23T00:29:03.999Z,0.00
2023-04-23T00:30:04.038Z,0.00
2023-04-23T00:31:04.087Z,0.00
2023-04-23T00:32:04.158Z,0.00
2023-04-23T00:33:04.141Z,0.00
2023-04-23T00:34:04.185Z,0.00
2023-04-23T00:35:04.237Z,0.00
2023-04-23T00:36:04.254Z,0.00
2023-04-23T00:37:04.276Z,0.00
2023-04-23T00:38:04.311Z,0.00
2023-04-23T00:39:04.348Z,0.00
2023-04-23T00:40:04.377Z,0.00
2023-04-23T00:41:04.422Z,0.00
2023-04-23T00:42:04.436Z,0.00
2023-04-23T00:43:04.472Z,0.00
2023-04-23T00:44:04.508Z,0.00
2023-04-23T00:45:04.541Z,0.00
2023-04-23T00:46:04.614Z,0.00
2023-04-23T00:47:04.615Z,0.00
2023-04-23T00:48:04.658Z,0.00
2023-04-23T00:49:04.691Z,0.00
2023-04-23T00:50:04.717Z,0.00
2023-04-23T00:51:04.771Z,0.00
2023-04-23T00:52:04.821Z,0.00
2023-04-23T00:53:04.821Z,0.00
2023-04-23T00:54:04.866Z,0.00
2023-04-23T00:55:04.894Z,0.00
2023-04-23T00:56:04.928Z,0.00
2023-04-23T00:57:04.960Z,0.00
2023-04-23T00:58:04.985Z,0.00
2023-04-23T00:59:05.030Z,0.00
2023-04-23T01:00:05.059Z,0.00
2023-04-23T01:01:05.170Z,0.00
2023-04-23T01:02:05.231Z,0.00
2023-04-23T01:03:05.325Z,0.00
2023-04-23T01:04:05.482Z,0.00
2023-04-23T01:05:05.231Z,0.00
2023-04-23T01:06:05.274Z,0.00
2023-04-23T01:07:05.302Z,0.00
2023-04-23T01:08:05.336Z,0.00
2023-04-23T01:09:05.371Z,0.00
2023-04-23T01:10:05.418Z,0.00
2023-04-23T01:11:05.442Z,0.00
2023-04-23T01:12:05.478Z,0.00
2023-04-23T01:13:05.494Z,0.00
2023-04-23T01:14:05.538Z,0.00
2023-04-23T01:15:05.584Z,0.00
2023-04-23T01:16:05.608Z,0.00
2023-04-23T01:17:05.724Z,0.00
2023-04-23T01:18:05.671Z,0.00
2023-04-23T01:19:05.716Z,0.00
2023-04-23T01:20:05.754Z,0.00
2023-04-23T01:21:05.802Z,0.00
2023-04-23T01:22:05.816Z,0.00
2023-04-23T01:23:05.899Z,0.00
2023-04-23T01:24:05.884Z,0.00
2023-04-23T01:25:05.952Z,0.00
2023-04-23T01:26:05.960Z,0.00
2023-04-23T01:27:05.998Z,0.00
2023-04-23T01:28:06.070Z,0.00
2023-04-23T01:29:06.074Z,0.00
2023-04-23T01:30:06.128Z,0.00
2023-04-23T01:31:06.143Z,0.00
2023-04-23T01:32:06.153Z,0.00
2023-04-23T01:33:06.200Z,0.00
2023-04-23T01:34:06.226Z,0.00
2023-04-23T01:35:06.276Z,0.00
2023-04-23T01:36:06.276Z,0.00
2023-04-23T01:37:06.325Z,0.00
2023-04-23T01:38:06.358Z,0.00
2023-04-23T01:39:06.402Z,0.00
2023-04-23T01:40:09.323Z,0.00
2023-04-23T01:41:06.463Z,0.00
2023-04-23T01:42:06.501Z,0.00
2023-04-23T01:43:06.537Z,0.00
2023-04-23T01:44:06.566Z,0.00
2023-04-23T01:45:06.620Z,0.00
2023-04-23T01:46:06.654Z,0.00
2023-04-23T01:47:07.226Z,0.00
2023-04-23T01:48:06.716Z,0.00
2023-04-23T01:49:06.736Z,0.00
2023-04-23T01:50:06.761Z,0.00
2023-04-23T01:51:06.793Z,0.00
2023-04-23T01:52:06.847Z,0.00
2023-04-23T01:53:06.869Z,0.00
2023-04-23T01:54:06.909Z,0.00
2023-04-23T01:55:06.939Z,0.00
2023-04-23T01:56:06.973Z,0.00
2023-04-23T01:57:06.997Z,0.00
2023-04-23T01:58:07.043Z,0.00
2023-04-23T01:59:07.079Z,0.00
2023-04-23T02:00:07.112Z,0.00
2023-04-23T02:01:07.148Z,0.00
2023-04-23T02:02:07.291Z,0.00
2023-04-23T02:03:07.379Z,0.00
2023-04-23T02:04:07.280Z,0.00
2023-04-23T02:05:07.281Z,0.00
2023-04-23T02:06:07.304Z,0.00
2023-04-23T02:07:07.341Z,0.00
2023-04-23T02:08:07.391Z,0.00
2023-04-23T02:09:07.403Z,0.00
2023-04-23T02:10:07.445Z,0.00
2023-04-23T02:11:07.481Z,0.00
2023-04-23T02:12:07.504Z,0.00
2023-04-23T02:13:07.550Z,0.00
2023-04-23T02:14:07.576Z,0.00
2023-04-23T02:15:07.628Z,0.00
2023-04-23T02:16:07.736Z,0.00
2023-04-23T02:17:07.670Z,0.00
2023-04-23T02:18:07.716Z,0.00
2023-04-23T02:19:07.754Z,0.00
2023-04-23T02:20:07.787Z,0.00
2023-04-23T02:21:07.846Z,0.00
2023-04-23T02:22:07.846Z,0.00
2023-04-23T02:23:07.890Z,0.00
2023-04-23T02:24:07.919Z,0.00
2023-04-23T02:25:07.953Z,0.00
2023-04-23T02:26:07.996Z,0.00
2023-04-23T02:27:08.060Z,0.00
2023-04-23T02:28:08.049Z,0.00
2023-04-23T02:29:08.085Z,0.00
2023-04-23T02:30:08.113Z,0.00
2023-04-23T02:31:08.198Z,0.00
2023-04-23T02:32:08.175Z,0.00
2023-04-23T02:33:08.221Z,0.00
2023-04-23T02:34:08.267Z,0.00
2023-04-23T02:35:08.289Z,0.00
2023-04-23T02:36:08.327Z,0.00
2023-04-23T02:37:08.360Z,0.00
2023-04-23T02:38:08.388Z,0.00
2023-04-23T02:39:08.548Z,0.00
2023-04-23T02:40:08.468Z,0.00
2023-04-23T02:41:08.508Z,0.00
2023-04-23T02:42:08.547Z,0.00
2023-04-23T02:43:08.578Z,0.00
2023-04-23T02:44:08.595Z,0.00
2023-04-23T02:45:08.613Z,0.00
2023-04-23T02:46:08.837Z,0.00
2023-04-23T02:47:08.689Z,0.00
2023-04-23T02:48:08.718Z,0.00
2023-04-23T02:49:08.763Z,0.00
2023-04-23T02:50:08.796Z,0.00
2023-04-23T02:51:08.823Z,0.00
2023-04-23T02:52:08.856Z,0.00
2023-04-23T02:53:08.913Z,0.00
2023-04-23T02:54:08.920Z,0.00
2023-04-23T02:55:08.946Z,0.00
2023-04-23T02:56:08.989Z,0.00
2023-04-23T02:57:09.031Z,0.00
2023-04-23T02:58:09.113Z,0.00
2023-04-23T02:59:09.097Z,0.00
2023-04-23T03:00:09.122Z,0.00
2023-04-23T03:01:09.240Z,0.00
2023-04-23T03:02:09.268Z,0.00
2023-04-23T03:03:11.109Z,0.00
2023-04-23T03:04:09.340Z,0.00
2023-04-23T03:05:09.302Z,0.00
2023-04-23T03:06:09.336Z,0.00
2023-04-23T03:07:09.359Z,0.00
2023-04-23T03:08:09.392Z,0.00
2023-04-23T03:09:09.423Z,0.00
2023-04-23T03:10:09.459Z,0.00
2023-04-23T03:11:09.495Z,0.00
2023-04-23T03:12:09.522Z,0.00
2023-04-23T03:13:09.556Z,0.00
2023-04-23T03:14:09.592Z,0.00
2023-04-23T03:15:09.609Z,0.00
2023-04-23T03:16:09.651Z,0.00
2023-04-23T03:17:09.698Z,0.00
2023-04-23T03:18:09.721Z,0.00
2023-04-23T03:19:09.758Z,0.00
2023-04-23T03:20:09.795Z,0.00
2023-04-23T03:21:09.807Z,0.00
2023-04-23T03:22:09.931Z,0.00
2023-04-23T03:23:09.889Z,0.00
2023-04-23T03:24:09.925Z,0.00
2023-04-23T03:25:09.954Z,0.00
2023-04-23T03:26:09.996Z,0.00
2023-04-23T03:27:10.030Z,0.00
2023-04-23T03:28:10.067Z,0.00
2023-04-23T03:29:10.080Z,0.00
2023-04-23T03:30:10.119Z,0.00
2023-04-23T03:31:10.280Z,0.00
2023-04-23T03:32:10.195Z,0.00
2023-04-23T03:33:10.237Z,0.00
2023-04-23T03:34:10.261Z,0.00
2023-04-23T03:35:10.294Z,0.00
2023-04-23T03:36:10.354Z,0.00
2023-04-23T03:37:10.359Z,0.00
2023-04-23T03:38:10.396Z,0.00
2023-04-23T03:39:10.436Z,0.00
2023-04-23T03:40:10.470Z,0.00
2023-04-23T03:41:10.504Z,0.00
2023-04-23T03:42:10.526Z,0.00
2023-04-23T03:43:10.565Z,4.00
2023-04-23T03:44:10.608Z,4.00
2023-04-23T03:45:10.618Z,4.00
2023-04-23T03:46:10.671Z,0.00
2023-04-23T03:47:10.685Z,0.00
2023-04-23T03:48:10.727Z,0.00
2023-04-23T03:49:10.764Z,0.00
2023-04-23T03:50:10.792Z,4.00
2023-04-23T03:51:10.835Z,4.00
2023-04-23T03:52:10.874Z,4.00
2023-04-23T03:53:10.895Z,0.00
2023-04-23T03:54:10.934Z,4.00
2023-04-23T03:55:10.966Z,4.00
2023-04-23T03:56:10.995Z,4.00
2023-04-23T03:57:11.038Z,4.00
2023-04-23T03:58:11.072Z,4.00
2023-04-23T03:59:11.135Z,4.00
2023-04-23T04:00:11.129Z,4.00
2023-04-23T04:01:11.157Z,4.00
2023-04-23T04:02:11.272Z,4.00
2023-04-23T04:03:11.352Z,4.00
2023-04-23T04:04:11.523Z,4.00
2023-04-23T04:05:11.786Z,8.00
2023-04-23T04:06:11.330Z,4.00
2023-04-23T04:07:11.377Z,8.00
2023-04-23T04:08:11.403Z,8.00
2023-04-23T04:09:11.438Z,4.00
2023-04-23T04:10:11.468Z,8.00
2023-04-23T04:11:11.509Z,8.00
2023-04-23T04:12:11.534Z,8.00
2023-04-23T04:13:11.581Z,12.00
2023-04-23T04:14:11.611Z,12.00
2023-04-23T04:15:11.648Z,12.00
2023-04-23T04:16:11.701Z,12.00
2023-04-23T04:17:11.712Z,16.00
2023-04-23T04:18:11.736Z,16.00
2023-04-23T04:19:11.774Z,16.00
2023-04-23T04:20:11.847Z,20.00
2023-04-23T04:21:11.837Z,20.00
2023-04-23T04:22:11.872Z,24.00
2023-04-23T04:23:11.909Z,28.00
2023-04-23T04:24:11.956Z,32.00
2023-04-23T04:25:11.975Z,36.00
2023-04-23T04:26:12.002Z,36.00
2023-04-23T04:27:12.045Z,44.00
2023-04-23T04:28:12.078Z,48.00
2023-04-23T04:29:12.114Z,52.00
2023-04-23T04:30:12.122Z,56.00
2023-04-23T04:31:12.205Z,64.00
2023-04-23T04:32:12.197Z,64.00
2023-04-23T04:33:12.263Z,68.00
2023-04-23T04:34:12.273Z,72.00
2023-04-23T04:35:12.314Z,72.00
2023-04-23T04:36:12.338Z,72.00
2023-04-23T04:37:12.372Z,76.00
2023-04-23T04:38:12.406Z,80.00
2023-04-23T04:39:12.438Z,80.00
2023-04-23T04:40:12.470Z,80.00
2023-04-23T04:41:12.516Z,80.00
2023-04-23T04:42:12.537Z,80.00
2023-04-23T04:43:12.574Z,84.00
2023-04-23T04:44:12.591Z,84.00
2023-04-23T04:45:12.647Z,84.00
2023-04-23T04:46:12.683Z,88.00
2023-04-23T04:47:12.707Z,92.00
2023-04-23T04:48:12.744Z,88.00
2023-04-23T04:49:12.846Z,88.00
2023-04-23T04:50:12.832Z,84.00
2023-04-23T04:51:12.836Z,80.00
2023-04-23T04:52:12.869Z,76.00
2023-04-23T04:53:12.900Z,72.00
2023-04-23T04:54:12.941Z,68.00
2023-04-23T04:55:12.989Z,68.00
2023-04-23T04:56:13.004Z,68.00
2023-04-23T04:57:13.047Z,64.00
2023-04-23T04:58:13.103Z,64.00
2023-04-23T04:59:13.111Z,64.00
2023-04-23T05:00:13.125Z,68.00
2023-04-23T05:01:13.209Z,68.00
2023-04-23T05:02:13.274Z,72.00
2023-04-23T05:03:14.311Z,76.00
2023-04-23T05:04:13.359Z,84.00
2023-04-23T05:05:13.309Z,88.00
2023-04-23T05:06:13.359Z,92.00
2023-04-23T05:07:13.376Z,100.00
2023-04-23T05:08:13.408Z,108.00
2023-04-23T05:09:13.477Z,112.00
2023-04-23T05:10:13.481Z,120.00
2023-04-23T05:11:13.514Z,128.00
2023-04-23T05:12:13.568Z,132.00
2023-04-23T05:13:13.565Z,136.00
2023-04-23T05:14:13.612Z,140.00
2023-04-23T05:15:13.633Z,144.00
2023-04-23T05:16:13.692Z,152.00
2023-04-23T05:17:13.709Z,160.00
2023-04-23T05:18:13.749Z,164.00
2023-04-23T05:19:13.777Z,168.00
2023-04-23T05:20:13.890Z,172.00
2023-04-23T05:21:13.846Z,176.00
2023-04-23T05:22:13.883Z,176.00
2023-04-23T05:23:13.935Z,180.00
2023-04-23T05:24:13.956Z,180.00
2023-04-23T05:25:13.989Z,180.00
2023-04-23T05:26:14.013Z,180.00
2023-04-23T05:27:14.053Z,180.00
2023-04-23T05:28:14.084Z,180.00
2023-04-23T05:29:14.116Z,176.00
2023-04-23T05:30:14.161Z,176.00
2023-04-23T05:31:14.203Z,176.00
2023-04-23T05:32:14.244Z,172.00
2023-04-23T05:33:14.247Z,172.00
2023-04-23T05:34:14.278Z,172.00
2023-04-23T05:35:14.319Z,164.00
2023-04-23T05:36:14.353Z,152.00
2023-04-23T05:37:14.378Z,144.00
2023-04-23T05:38:14.411Z,140.00
2023-04-23T05:39:14.448Z,136.00
2023-04-23T05:40:14.467Z,136.00
2023-04-23T05:41:14.516Z,136.00
2023-04-23T05:42:14.549Z,132.00
2023-04-23T05:43:14.777Z,132.00
2023-04-23T05:44:14.616Z,136.00
2023-04-23T05:45:14.647Z,136.00
2023-04-23T05:46:14.715Z,136.00
2023-04-23T05:47:14.735Z,140.00
2023-04-23T05:48:14.745Z,144.00
2023-04-23T05:49:14.775Z,152.00
2023-04-23T05:50:14.808Z,156.00
2023-04-23T05:51:14.832Z,164.00
2023-04-23T05:52:14.894Z,172.00
2023-04-23T05:53:14.922Z,184.00
2023-04-23T05:54:14.944Z,192.00
2023-04-23T05:55:14.980Z,200.00
2023-04-23T05:56:15.030Z,208.00
2023-04-23T05:57:15.044Z,212.00
2023-04-23T05:58:15.088Z,216.00
2023-04-23T05:59:15.110Z,224.00
2023-04-23T06:00:15.165Z,228.00
2023-04-23T06:01:15.362Z,232.00
2023-04-23T06:02:15.224Z,236.00
2023-04-23T06:03:15.477Z,244.00
2023-04-23T06:04:15.575Z,244.00
2023-04-23T06:05:15.542Z,244.00
2023-04-23T06:06:15.351Z,244.00
2023-04-23T06:07:15.412Z,244.00
2023-04-23T06:08:15.407Z,248.00
2023-04-23T06:09:15.445Z,252.00
2023-04-23T06:10:15.473Z,252.00
2023-04-23T06:11:15.539Z,256.00
2023-04-23T06:12:15.543Z,260.00
2023-04-23T06:13:15.581Z,264.00
2023-04-23T06:14:15.609Z,268.00
2023-04-23T06:15:15.650Z,272.00
2023-04-23T06:16:15.722Z,276.00
2023-04-23T06:17:15.718Z,280.00
2023-04-23T06:18:15.770Z,284.00
2023-04-23T06:19:15.783Z,292.00
2023-04-23T06:20:15.803Z,296.00
2023-04-23T06:21:16.104Z,296.00
2023-04-23T06:22:15.878Z,300.00
2023-04-23T06:23:15.927Z,300.00
2023-04-23T06:24:15.954Z,296.00
2023-04-23T06:25:15.996Z,296.00
2023-04-23T06:26:16.011Z,292.00
2023-04-23T06:27:16.046Z,288.00
2023-04-23T06:28:16.182Z,288.00
2023-04-23T06:29:16.116Z,280.00
2023-04-23T06:30:16.155Z,280.00
2023-04-23T06:31:16.243Z,276.00
2023-04-23T06:32:18.370Z,268.00
2023-04-23T06:33:16.247Z,264.00
2023-04-23T06:34:16.268Z,260.00
2023-04-23T06:35:16.310Z,260.00
2023-04-23T06:36:16.334Z,256.00
2023-04-23T06:37:16.382Z,256.00
2023-04-23T06:38:16.432Z,256.00
2023-04-23T06:39:16.461Z,256.00
2023-04-23T06:40:16.479Z,252.00
2023-04-23T06:41:16.515Z,252.00
2023-04-23T06:42:16.568Z,248.00
2023-04-23T06:43:16.588Z,244.00
2023-04-23T06:44:16.616Z,236.00
2023-04-23T06:45:16.650Z,220.00
2023-04-23T06:46:16.681Z,248.00
2023-04-23T06:47:16.719Z,240.00
2023-04-23T06:48:16.797Z,236.00
2023-04-23T06:49:16.785Z,232.00
2023-04-23T06:50:16.823Z,220.00
2023-04-23T06:51:16.856Z,204.00
2023-04-23T06:52:16.889Z,200.00
2023-04-23T06:53:16.914Z,196.00
2023-04-23T06:54:16.946Z,192.00
2023-04-23T06:55:16.977Z,188.00
2023-04-23T06:56:17.029Z,188.00
2023-04-23T06:57:17.063Z,184.00
2023-04-23T06:58:17.085Z,184.00
2023-04-23T06:59:17.128Z,184.00
2023-04-23T07:00:17.155Z,180.00
2023-04-23T07:01:17.279Z,176.00
2023-04-23T07:02:17.288Z,168.00
2023-04-23T07:03:17.287Z,164.00
2023-04-23T07:04:17.385Z,156.00
2023-04-23T07:05:17.328Z,148.00
2023-04-23T07:06:17.360Z,132.00
2023-04-23T07:07:17.393Z,128.00
2023-04-23T07:08:17.427Z,128.00
2023-04-23T07:09:17.464Z,124.00
2023-04-23T07:10:18.106Z,124.00
2023-04-23T07:11:17.537Z,120.00
2023-04-23T07:12:17.564Z,124.00
2023-04-23T07:13:17.593Z,124.00
2023-04-23T07:14:17.629Z,128.00
2023-04-23T07:15:17.692Z,132.00
2023-04-23T07:16:19.169Z,132.00
2023-04-23T07:17:17.736Z,136.00
2023-04-23T07:18:17.774Z,140.00
2023-04-23T07:19:17.806Z,148.00
2023-04-23T07:20:17.844Z,148.00
2023-04-23T07:21:17.873Z,156.00
2023-04-23T07:22:17.953Z,160.00
2023-04-23T07:23:17.949Z,168.00
2023-04-23T07:24:17.978Z,176.00
2023-04-23T07:25:18.012Z,188.00
2023-04-23T07:26:18.057Z,192.00
2023-04-23T07:27:18.083Z,200.00
2023-04-23T07:28:18.110Z,208.00
2023-04-23T07:29:18.145Z,212.00
2023-04-23T07:30:18.174Z,216.00
2023-04-23T07:31:18.225Z,220.00
2023-04-23T07:32:18.294Z,224.00
2023-04-23T07:33:18.285Z,224.00
2023-04-23T07:34:18.321Z,228.00
2023-04-23T07:35:18.363Z,228.00
2023-04-23T07:36:18.443Z,228.00
2023-04-23T07:37:18.426Z,232.00
2023-04-23T07:38:18.473Z,232.00
2023-04-23T07:39:18.486Z,232.00
2023-04-23T07:40:18.526Z,232.00
2023-04-23T07:41:18.553Z,232.00
2023-04-23T07:42:18.585Z,236.00
2023-04-23T07:43:18.623Z,240.00
2023-04-23T07:44:18.648Z,244.00
2023-04-23T07:45:18.678Z,248.00
2023-04-23T07:46:18.752Z,256.00
2023-04-23T07:47:18.756Z,260.00
2023-04-23T07:48:18.785Z,260.00
2023-04-23T07:49:18.811Z,264.00
2023-04-23T07:50:18.846Z,264.00
2023-04-23T07:51:18.900Z,268.00
2023-04-23T07:52:18.909Z,268.00
2023-04-23T07:53:18.985Z,272.00
2023-04-23T07:54:18.978Z,268.00
2023-04-23T07:55:19.008Z,264.00
2023-04-23T07:56:19.040Z,264.00
2023-04-23T07:57:19.065Z,260.00
2023-04-23T07:58:19.107Z,256.00
2023-04-23T07:59:19.154Z,252.00
2023-04-23T08:00:19.173Z,248.00
2023-04-23T08:01:19.219Z,252.00
2023-04-23T08:02:19.309Z,252.00
2023-04-23T08:03:19.544Z,252.00
2023-04-23T08:04:19.665Z,252.00
2023-04-23T08:05:19.366Z,256.00
2023-04-23T08:06:19.398Z,260.00
2023-04-23T08:07:19.421Z,264.00
2023-04-23T08:08:19.485Z,264.00
2023-04-23T08:09:19.484Z,260.00
2023-04-23T08:10:19.512Z,260.00
2023-04-23T08:11:19.547Z,264.00
2023-04-23T08:12:19.575Z,268.00
2023-04-23T08:13:19.609Z,272.00
2023-04-23T08:14:19.656Z,276.00
2023-04-23T08:15:19.685Z,288.00
2023-04-23T08:16:19.869Z,300.00
2023-04-23T08:17:19.749Z,316.00
2023-04-23T08:18:19.792Z,328.00
2023-04-23T08:19:19.811Z,340.00
2023-04-23T08:20:19.853Z,352.00
2023-04-23T08:21:19.886Z,364.00
2023-04-23T08:22:20.942Z,376.00
2023-04-23T08:23:19.954Z,388.00
2023-04-23T08:24:19.977Z,400.00
2023-04-23T08:25:20.033Z,412.00
2023-04-23T08:26:20.040Z,428.00
2023-04-23T08:27:20.096Z,436.00
2023-04-23T08:28:20.126Z,444.00
2023-04-23T08:29:20.148Z,444.00
2023-04-23T08:30:20.176Z,456.00
2023-04-23T08:31:26.582Z,464.00
2023-04-23T08:32:20.360Z,460.00
2023-04-23T08:33:20.277Z,448.00
2023-04-23T08:34:20.299Z,436.00
2023-04-23T08:35:20.351Z,448.00
2023-04-23T08:36:20.374Z,472.00
2023-04-23T08:37:30.432Z,500.00
2023-04-23T08:38:20.457Z,496.00
2023-04-23T08:39:20.496Z,484.00
2023-04-23T08:40:20.537Z,464.00
2023-04-23T08:41:20.546Z,440.00
2023-04-23T08:42:20.584Z,428.00
2023-04-23T08:43:20.642Z,424.00
2023-04-23T08:44:20.656Z,420.00
2023-04-23T08:45:20.720Z,428.00
2023-04-23T08:46:20.726Z,432.00
2023-04-23T08:47:20.732Z,452.00
2023-04-23T08:48:20.788Z,480.00
2023-04-23T08:49:20.817Z,484.00
2023-04-23T08:50:20.865Z,528.00
2023-04-23T08:51:20.880Z,536.00
2023-04-23T08:52:20.902Z,512.00
2023-04-23T08:53:20.944Z,492.00
2023-04-23T08:54:21.079Z,472.00
2023-04-23T08:55:21.098Z,480.00
2023-04-23T08:56:21.155Z,488.00
2023-04-23T08:57:21.233Z,460.00
2023-04-23T08:58:21.194Z,404.00
2023-04-23T08:59:21.250Z,312.00
2023-04-23T09:00:21.602Z,220.00
2023-04-23T09:01:21.332Z,144.00
2023-04-23T09:02:21.390Z,112.00
2023-04-23T09:03:21.411Z,104.00
2023-04-23T09:04:21.310Z,116.00
2023-04-23T09:05:21.344Z,136.00
2023-04-23T09:06:21.382Z,160.00
2023-04-23T09:07:21.414Z,192.00
2023-04-23T09:08:21.565Z,204.00
2023-04-23T09:09:21.479Z,208.00
2023-04-23T09:10:21.509Z,200.00
2023-04-23T09:11:21.558Z,192.00
2023-04-23T09:12:21.589Z,184.00
2023-04-23T09:13:21.600Z,180.00
2023-04-23T09:14:21.650Z,164.00
2023-04-23T09:15:21.724Z,148.00
2023-04-23T09:16:21.744Z,140.00
2023-04-23T09:17:21.752Z,132.00
2023-04-23T09:18:21.784Z,132.00
2023-04-23T09:19:21.812Z,140.00
2023-04-23T09:20:21.855Z,156.00
2023-04-23T09:21:21.881Z,168.00
2023-04-23T09:22:21.908Z,172.00
2023-04-23T09:23:21.951Z,172.00
2023-04-23T09:24:21.981Z,156.00
2023-04-23T09:25:22.016Z,128.00
2023-04-23T09:26:22.057Z,112.00
2023-04-23T09:27:22.086Z,104.00
2023-04-23T09:28:22.109Z,96.00
2023-04-23T09:29:22.156Z,100.00
2023-04-23T09:30:22.236Z,112.00
2023-04-23T09:31:22.220Z,124.00
2023-04-23T09:32:22.348Z,132.00
2023-04-23T09:33:22.285Z,144.00
2023-04-23T09:34:22.324Z,152.00
2023-04-23T09:35:22.427Z,160.00
2023-04-23T09:36:22.382Z,172.00
2023-04-23T09:37:22.410Z,120.00
2023-04-23T09:38:22.462Z,176.00
2023-04-23T09:39:22.505Z,184.00
2023-04-23T09:40:22.520Z,188.00
2023-04-23T09:41:22.548Z,196.00
2023-04-23T09:42:22.583Z,212.00
2023-04-23T09:43:22.610Z,232.00
2023-04-23T09:44:22.847Z,256.00
2023-04-23T09:45:22.703Z,268.00
2023-04-23T09:46:22.777Z,280.00
2023-04-23T09:47:25.106Z,280.00
2023-04-23T09:48:22.799Z,280.00
2023-04-23T09:49:22.812Z,288.00
2023-04-23T09:50:22.844Z,304.00
2023-04-23T09:51:22.880Z,312.00
2023-04-23T09:52:22.909Z,324.00
2023-04-23T09:53:22.941Z,328.00
2023-04-23T09:54:22.977Z,336.00
2023-04-23T09:55:23.024Z,336.00
2023-04-23T09:56:23.046Z,336.00
2023-04-23T09:57:23.069Z,340.00
2023-04-23T09:58:23.108Z,340.00
2023-04-23T09:59:32.145Z,348.00
2023-04-23T10:00:23.316Z,348.00
2023-04-23T10:01:23.219Z,348.00
2023-04-23T10:02:23.383Z,360.00
2023-04-23T10:03:23.426Z,380.00
2023-04-23T10:04:23.530Z,380.00
2023-04-23T10:05:24.757Z,380.00
2023-04-23T10:06:40.833Z,372.00
2023-04-23T10:07:23.403Z,364.00
2023-04-23T10:08:23.441Z,352.00
2023-04-23T10:09:23.464Z,340.00
2023-04-23T10:10:23.503Z,336.00
2023-04-23T10:11:23.538Z,348.00
2023-04-23T10:13:23.612Z,392.00
2023-04-23T10:14:23.639Z,420.00
2023-04-23T10:15:23.687Z,440.00
2023-04-23T10:16:26.858Z,444.00
2023-04-23T10:17:23.778Z,448.00
2023-04-23T10:18:23.775Z,444.00
2023-04-23T10:19:23.824Z,440.00
2023-04-23T10:20:23.878Z,444.00
2023-04-23T10:21:23.868Z,448.00
2023-04-23T10:22:23.913Z,460.00
2023-04-23T10:23:23.927Z,476.00
2023-04-23T10:24:23.956Z,484.00
2023-04-23T10:25:23.997Z,488.00
2023-04-23T10:26:24.042Z,484.00
2023-04-23T10:27:33.484Z,472.00
2023-04-23T10:28:24.114Z,472.00
2023-04-23T10:29:24.135Z,480.00
2023-04-23T10:30:24.179Z,492.00
2023-04-23T10:31:24.247Z,512.00
2023-04-23T10:32:24.273Z,540.00
2023-04-23T10:34:24.341Z,620.00
2023-04-23T10:35:24.343Z,664.00
2023-04-23T10:36:24.380Z,696.00
2023-04-23T10:37:24.397Z,736.00
2023-04-23T10:38:24.490Z,776.00
2023-04-23T10:39:44.416Z,824.00
2023-04-23T10:40:24.517Z,872.00
2023-04-23T10:41:24.539Z,912.00
2023-04-23T10:42:24.584Z,948.00
2023-04-23T10:43:24.614Z,976.00
2023-04-23T10:44:44.950Z,996.00
2023-04-23T10:45:25.881Z,1008.00
2023-04-23T10:46:24.733Z,1024.00
2023-04-23T10:47:24.801Z,1052.00
2023-04-23T10:48:24.792Z,1064.00
2023-04-23T10:49:24.794Z,1072.00
2023-04-23T10:50:24.863Z,1092.00
2023-04-23T10:52:10.164Z,1124.00
2023-04-23T10:52:26.016Z,1172.00
2023-04-23T10:53:24.929Z,1180.00
2023-04-23T10:54:24.973Z,1200.00
2023-04-23T10:55:25.040Z,1228.00
2023-04-23T10:56:25.037Z,1252.00
2023-04-23T10:57:25.063Z,1288.00
2023-04-23T10:58:25.112Z,1336.00
2023-04-23T10:59:25.152Z,1404.00
2023-04-23T11:00:25.171Z,1516.00
2023-04-23T11:01:25.259Z,1340.00
2023-04-23T11:02:25.382Z,1364.00
2023-04-23T11:03:25.470Z,936.00
2023-04-23T11:04:25.551Z,812.00
2023-04-23T11:05:25.327Z,764.00
2023-04-23T11:06:25.372Z,760.00
2023-04-23T11:07:25.415Z,768.00
2023-04-23T11:08:25.444Z,764.00
2023-04-23T11:09:25.476Z,776.00
2023-04-23T11:10:25.518Z,796.00
2023-04-23T11:11:25.545Z,844.00
2023-04-23T11:12:25.582Z,876.00
2023-04-23T11:13:25.612Z,892.00
2023-04-23T11:14:25.648Z,908.00
2023-04-23T11:15:25.693Z,928.00
2023-04-23T11:16:25.835Z,936.00
2023-04-23T11:17:25.819Z,936.00
2023-04-23T11:18:25.771Z,916.00
2023-04-23T11:19:25.808Z,904.00
2023-04-23T11:20:25.840Z,868.00
2023-04-23T11:21:25.883Z,860.00
2023-04-23T11:22:25.916Z,876.00
2023-04-23T11:23:25.949Z,908.00
2023-04-23T11:24:25.985Z,940.00
2023-04-23T11:25:26.060Z,976.00
2023-04-23T11:26:26.054Z,996.00
2023-04-23T11:27:26.101Z,1016.00
2023-04-23T11:28:26.119Z,1048.00
2023-04-23T11:29:26.183Z,1072.00
2023-04-23T11:30:26.192Z,1064.00
2023-04-23T11:31:26.249Z,1056.00
2023-04-23T11:32:26.444Z,980.00
2023-04-23T11:33:26.392Z,936.00
2023-04-23T11:34:26.382Z,872.00
2023-04-23T11:35:26.372Z,736.00
2023-04-23T11:36:26.397Z,652.00
2023-04-23T11:37:26.424Z,616.00
2023-04-23T11:38:26.465Z,628.00
2023-04-23T11:39:26.494Z,672.00
2023-04-23T11:40:26.605Z,724.00
2023-04-23T11:41:26.566Z,760.00
2023-04-23T11:42:26.599Z,800.00
2023-04-23T11:43:26.631Z,836.00
2023-04-23T11:44:26.672Z,892.00
2023-04-23T11:45:26.718Z,964.00
2023-04-23T11:46:26.778Z,1068.00
2023-04-23T11:47:26.775Z,1192.00
2023-04-23T11:48:26.803Z,1304.00
2023-04-23T11:49:26.838Z,1480.00
2023-04-23T11:50:26.873Z,1724.00
2023-04-23T11:51:26.960Z,1752.00
2023-04-23T11:52:26.932Z,1768.00
2023-04-23T11:53:26.976Z,1928.00
2023-04-23T11:54:27.012Z,1836.00
2023-04-23T11:55:27.040Z,1828.00
2023-04-23T11:56:27.071Z,2628.00
2023-04-23T11:57:27.102Z,1820.00
2023-04-23T11:58:27.140Z,1968.00
2023-04-23T11:59:27.175Z,2232.00
2023-04-23T12:00:27.212Z,2016.00
2023-04-23T12:01:27.261Z,1936.00
2023-04-23T12:02:27.363Z,1928.00
2023-04-23T12:03:27.462Z,1944.00
2023-04-23T12:04:27.449Z,2508.00
2023-04-23T12:05:27.387Z,2548.00
2023-04-23T12:06:27.429Z,2496.00
2023-04-23T12:07:27.451Z,2424.00
2023-04-23T12:08:27.497Z,2184.00
2023-04-23T12:09:27.530Z,2252.00
2023-04-23T12:10:27.558Z,2092.00
2023-04-23T12:11:27.598Z,1756.00
2023-04-23T12:12:27.623Z,1804.00
2023-04-23T12:13:27.659Z,1864.00
2023-04-23T12:14:27.712Z,1920.00
2023-04-23T12:15:27.737Z,1564.00
2023-04-23T12:16:27.865Z,2116.00
2023-04-23T12:17:27.833Z,1588.00
2023-04-23T12:18:27.828Z,1768.00
2023-04-23T12:19:27.866Z,2100.00
2023-04-23T12:20:27.897Z,2156.00
2023-04-23T12:21:27.932Z,1856.00
2023-04-23T12:22:27.996Z,1720.00
2023-04-23T12:23:28.037Z,1644.00
2023-04-23T12:24:28.048Z,1988.00
2023-04-23T12:25:28.083Z,1932.00
2023-04-23T12:26:28.121Z,1408.00
2023-04-23T12:27:28.143Z,1416.00
2023-04-23T12:28:28.172Z,1460.00
2023-04-23T12:29:28.231Z,1556.00
2023-04-23T12:30:28.237Z,1640.00
2023-04-23T12:31:28.311Z,1728.00
2023-04-23T12:32:28.371Z,1724.00
2023-04-23T12:33:28.363Z,1756.00
2023-04-23T12:34:28.441Z,1688.00
2023-04-23T12:35:28.430Z,1644.00
2023-04-23T12:36:28.477Z,1608.00
2023-04-23T12:37:28.529Z,1560.00
2023-04-23T12:38:28.541Z,1524.00
2023-04-23T12:39:28.581Z,1500.00
2023-04-23T12:40:28.602Z,1516.00
2023-04-23T12:41:28.658Z,1536.00
2023-04-23T12:42:28.681Z,1592.00
2023-04-23T12:43:28.722Z,1588.00
2023-04-23T12:44:28.745Z,1600.00
2023-04-23T12:45:28.763Z,1560.00